createdAt,value
2023-04-02T00:00:19.627Z,100.00
2023-04-02T00:02:57.543Z,100.00
2023-04-02T00:05:51.252Z,100.00
2023-04-02T00:08:24.868Z,100.00
2023-04-02T00:10:55.870Z,100.00
2023-04-02T00:13:34.010Z,100.00
2023-04-02T00:16:05.082Z,100.00
2023-04-02T00:18:35.636Z,100.00
2023-04-02T00:21:13.008Z,100.00
2023-04-02T00:23:43.912Z,100.00
2023-04-02T00:26:31.501Z,100.00
2023-04-02T00:29:02.719Z,100.00
2023-04-02T00:31:32.170Z,100.00
2023-04-02T00:34:02.694Z,100.00
2023-04-02T00:36:35.017Z,100.00
2023-04-02T00:39:06.051Z,100.00
2023-04-02T00:41:36.094Z,100.00
2023-04-02T00:44:06.953Z,100.00
2023-04-02T00:46:46.991Z,100.00
2023-04-02T00:49:24.109Z,100.00
2023-04-02T00:51:56.170Z,100.00
2023-04-02T00:54:32.489Z,100.00
2023-04-02T00:57:01.335Z,100.00
2023-04-02T00:59:33.918Z,100.00
2023-04-02T01:02:22.552Z,100.00
2023-04-02T01:04:54.913Z,100.00
2023-04-02T01:07:39.368Z,100.00
2023-04-02T01:10:35.047Z,100.00
2023-04-02T01:13:16.886Z,100.00
2023-04-02T01:15:54.583Z,100.00
2023-04-02T01:18:37.010Z,100.00
2023-04-02T01:21:21.907Z,100.00
2023-04-02T01:24:01.817Z,100.00
2023-04-02T01:26:47.122Z,100.00
2023-04-02T01:29:20.029Z,100.00
2023-04-02T01:31:50.395Z,100.00
2023-04-02T01:34:25.055Z,100.00
2023-04-02T01:37:23.017Z,100.00
2023-04-02T01:40:11.487Z,100.00
2023-04-02T01:42:50.514Z,100.00
2023-04-02T01:45:23.105Z,100.00
2023-04-02T01:47:51.784Z,100.00
2023-04-02T01:50:31.776Z,100.00
2023-04-02T01:53:03.949Z,100.00
2023-04-02T01:55:41.947Z,100.00
2023-04-02T01:58:12.450Z,100.00
2023-04-02T02:00:49.232Z,100.00
2023-04-02T02:03:18.569Z,100.00
2023-04-02T02:06:00.398Z,100.00
2023-04-02T02:08:35.733Z,100.00
2023-04-02T02:11:05.198Z,100.00
2023-04-02T02:13:33.604Z,100.00
2023-04-02T02:16:06.074Z,100.00
2023-04-02T02:18:34.909Z,100.00
2023-04-02T02:21:09.083Z,100.00
2023-04-02T02:23:37.902Z,100.00
2023-04-02T02:26:07.805Z,100.00
2023-04-02T02:28:41.204Z,100.00
2023-04-02T02:31:17.820Z,100.00
2023-04-02T02:33:51.797Z,100.00
2023-04-02T02:36:28.114Z,100.00
2023-04-02T02:39:08.563Z,100.00
2023-04-02T02:41:47.140Z,100.00
2023-04-02T02:44:19.849Z,100.00
2023-04-02T02:46:52.760Z,100.00
2023-04-02T02:49:28.942Z,100.00
2023-04-02T02:52:04.755Z,100.00
2023-04-02T02:54:45.172Z,100.00
2023-04-02T02:57:17.887Z,100.00
2023-04-02T02:59:47.445Z,100.00
2023-04-02T03:02:18.062Z,100.00
2023-04-02T03:04:49.658Z,100.00
2023-04-02T03:07:19.763Z,100.00
2023-04-02T03:09:55.773Z,100.00
2023-04-02T03:12:38.098Z,100.00
2023-04-02T03:15:20.031Z,100.00
2023-04-02T03:17:57.546Z,100.00
2023-04-02T03:20:34.678Z,100.00
2023-04-02T03:23:13.016Z,100.00
2023-04-02T03:25:45.401Z,100.00
2023-04-02T03:28:18.301Z,100.00
2023-04-02T03:30:53.735Z,100.00
2023-04-02T03:33:28.201Z,100.00
2023-04-02T03:36:04.610Z,100.00
2023-04-02T03:38:43.542Z,100.00
2023-04-02T03:41:19.978Z,100.00
2023-04-02T03:43:53.379Z,100.00
2023-04-02T03:46:28.667Z,100.00
2023-04-02T03:49:03.714Z,100.00
2023-04-02T03:51:37.440Z,100.00
2023-04-02T03:54:06.447Z,100.00
2023-04-02T03:56:40.973Z,100.00
2023-04-02T03:59:23.173Z,100.00
2023-04-02T04:01:59.912Z,100.00
2023-04-02T04:04:32.634Z,100.00
2023-04-02T04:07:02.492Z,100.00
2023-04-02T04:09:34.366Z,100.00
2023-04-02T04:12:14.000Z,100.00
2023-04-02T04:14:47.367Z,100.00
2023-04-02T04:17:24.831Z,100.00
2023-04-02T04:20:08.242Z,100.00
2023-04-02T04:22:37.829Z,100.00
2023-04-02T04:25:23.742Z,100.00
2023-04-02T04:28:08.222Z,100.00
2023-04-02T04:30:51.350Z,100.00
2023-04-02T04:33:26.488Z,100.00
2023-04-02T04:36:03.040Z,100.00
2023-04-02T04:38:39.180Z,100.00
2023-04-02T04:41:15.661Z,100.00
2023-04-02T04:43:51.821Z,100.00
2023-04-02T04:46:28.908Z,100.00
2023-04-02T04:49:03.830Z,100.00
2023-04-02T04:51:40.915Z,100.00
2023-04-02T04:54:13.998Z,100.00
2023-04-02T04:56:49.223Z,100.00
2023-04-02T04:59:23.804Z,100.00
2023-04-02T05:02:01.941Z,100.00
2023-04-02T05:04:35.697Z,100.00
2023-04-02T05:07:10.726Z,100.00
2023-04-02T05:09:44.035Z,100.00
2023-04-02T05:12:27.756Z,100.00
2023-04-02T05:15:01.700Z,100.00
2023-04-02T05:17:36.583Z,100.00
2023-04-02T05:20:16.267Z,100.00
2023-04-02T05:22:55.559Z,100.00
2023-04-02T05:25:28.578Z,100.00
2023-04-02T05:28:06.811Z,100.00
2023-04-02T05:30:53.096Z,100.00
2023-04-02T05:33:28.152Z,100.00
2023-04-02T05:36:02.316Z,100.00
2023-04-02T05:38:35.922Z,100.00
2023-04-02T05:41:08.911Z,100.00
2023-04-02T05:43:39.278Z,100.00
2023-04-02T05:46:18.326Z,100.00
2023-04-02T05:48:52.984Z,100.00
2023-04-02T05:51:29.144Z,100.00
2023-04-02T05:54:02.409Z,100.00
2023-04-02T05:56:36.773Z,100.00
2023-04-02T05:59:12.379Z,100.00
2023-04-02T06:01:47.233Z,100.00
2023-04-02T06:04:27.193Z,100.00
2023-04-02T06:07:02.875Z,100.00
2023-04-02T06:09:40.609Z,100.00
2023-04-02T06:12:20.978Z,100.00
2023-04-02T06:14:49.526Z,100.00
2023-04-02T06:17:20.285Z,100.00
2023-04-02T06:19:54.321Z,100.00
2023-04-02T06:22:28.166Z,100.00
2023-04-02T06:25:05.308Z,100.00
2023-04-02T06:27:40.757Z,100.00
2023-04-02T06:30:18.860Z,100.00
2023-04-02T06:32:50.423Z,100.00
2023-04-02T06:35:20.459Z,100.00
2023-04-02T06:38:01.527Z,100.00
2023-04-02T06:40:42.802Z,100.00
2023-04-02T06:43:33.362Z,100.00
2023-04-02T06:46:33.876Z,100.00
2023-04-02T06:49:18.981Z,100.00
2023-04-02T06:51:50.747Z,100.00
2023-04-02T06:54:20.362Z,100.00
2023-04-02T06:56:57.142Z,100.00
2023-04-02T06:59:41.164Z,100.00
2023-04-02T07:02:35.759Z,100.00
2023-04-02T07:05:09.844Z,100.00
2023-04-02T07:07:42.251Z,100.00
2023-04-02T07:10:13.815Z,100.00
2023-04-02T07:12:43.560Z,100.00
2023-04-02T07:15:16.946Z,100.00
2023-04-02T07:17:45.662Z,100.00
2023-04-02T07:20:28.518Z,100.00
2023-04-02T07:22:58.455Z,100.00
2023-04-02T07:25:28.252Z,100.00
2023-04-02T07:27:57.993Z,100.00
2023-04-02T07:30:26.232Z,100.00
2023-04-02T07:32:54.861Z,100.00
2023-04-02T07:35:23.054Z,100.00
2023-04-02T07:37:52.850Z,100.00
2023-04-02T07:40:24.246Z,100.00
2023-04-02T07:42:52.783Z,100.00
2023-04-02T07:45:22.437Z,100.00
2023-04-02T07:47:51.453Z,100.00
2023-04-02T07:50:20.094Z,100.00
2023-04-02T07:52:48.282Z,100.00
2023-04-02T07:55:17.768Z,100.00
2023-04-02T07:57:51.648Z,100.00
2023-04-02T08:00:24.502Z,100.00
2023-04-02T08:02:53.014Z,100.00
2023-04-02T08:05:22.503Z,100.00
2023-04-02T08:07:55.088Z,100.00
2023-04-02T08:10:24.105Z,100.00
2023-04-02T08:12:52.566Z,100.00
2023-04-02T08:15:22.256Z,100.00
2023-04-02T08:17:51.463Z,100.00
2023-04-02T08:20:23.086Z,100.00
2023-04-02T08:22:51.725Z,100.00
2023-04-02T08:25:19.982Z,100.00
2023-04-02T08:27:49.609Z,100.00
2023-04-02T08:30:19.361Z,100.00
2023-04-02T08:32:49.117Z,100.00
2023-04-02T08:35:19.224Z,100.00
2023-04-02T08:37:47.439Z,100.00
2023-04-02T08:40:24.366Z,100.00
2023-04-02T08:43:14.124Z,100.00
2023-04-02T08:45:57.279Z,100.00
2023-04-02T08:48:27.144Z,100.00
2023-04-02T08:50:55.523Z,100.00
2023-04-02T08:53:27.294Z,100.00
2023-04-02T08:56:05.390Z,100.00
2023-04-02T08:58:42.947Z,100.00
2023-04-02T09:01:24.666Z,100.00
2023-04-02T09:03:59.093Z,100.00
2023-04-02T09:06:29.302Z,100.00
2023-04-02T09:09:00.165Z,100.00
2023-04-02T09:11:37.192Z,100.00
2023-04-02T09:14:13.600Z,100.00
2023-04-02T09:16:46.374Z,100.00
2023-04-02T09:19:22.689Z,100.00
2023-04-02T09:22:07.577Z,100.00
2023-04-02T09:24:37.868Z,100.00
2023-04-02T09:27:17.609Z,100.00
2023-04-02T09:29:48.547Z,100.00
2023-04-02T09:32:41.535Z,100.00
2023-04-02T09:35:25.495Z,100.00
2023-04-02T09:38:21.622Z,100.00
2023-04-02T09:41:00.771Z,100.00
2023-04-02T09:43:30.651Z,100.00
2023-04-02T09:46:04.601Z,100.00
2023-04-02T09:48:36.856Z,100.00
2023-04-02T09:51:16.598Z,100.00
2023-04-02T09:53:47.238Z,100.00
2023-04-02T09:56:19.404Z,100.00
2023-04-02T09:59:05.483Z,100.00
2023-04-02T10:01:36.707Z,100.00
2023-04-02T10:04:38.573Z,100.00
2023-04-02T10:07:09.019Z,100.00
2023-04-02T10:09:39.522Z,100.00
2023-04-02T10:12:13.787Z,100.00
2023-04-02T10:14:46.009Z,100.00
2023-04-02T10:17:19.802Z,100.00
2023-04-02T10:19:52.173Z,100.00
2023-04-02T10:22:24.264Z,100.00
2023-04-02T10:24:52.887Z,100.00
2023-04-02T10:27:30.568Z,100.00
2023-04-02T10:30:17.879Z,99.18
2023-04-02T10:32:51.794Z,97.88
2023-04-02T10:35:39.711Z,99.36
2023-04-02T10:38:32.506Z,98.32
2023-04-02T10:41:07.872Z,98.69
2023-04-02T10:43:53.557Z,100.00
2023-04-02T10:46:27.659Z,100.00
2023-04-02T10:49:06.161Z,100.00
2023-04-02T10:51:43.083Z,100.00
2023-04-02T10:54:38.988Z,100.00
2023-04-02T10:57:15.985Z,100.00
2023-04-02T10:59:52.453Z,100.00
2023-04-02T11:02:37.574Z,100.00
2023-04-02T11:05:19.747Z,100.00
2023-04-02T11:08:02.457Z,100.00
2023-04-02T11:10:36.725Z,100.00
2023-04-02T11:13:13.044Z,100.00
2023-04-02T11:15:41.570Z,100.00
2023-04-02T11:18:24.885Z,100.00
2023-04-02T11:21:00.536Z,100.00
2023-04-02T11:23:33.063Z,100.00
2023-04-02T11:26:41.267Z,100.00
2023-04-02T11:29:27.608Z,100.00
2023-04-02T11:32:39.420Z,100.00
2023-04-02T11:35:37.829Z,100.00
2023-04-02T11:38:52.951Z,100.00
2023-04-02T11:42:02.868Z,100.00
2023-04-02T11:44:31.158Z,100.00
2023-04-02T11:47:21.799Z,100.00
2023-04-02T11:50:29.468Z,100.00
2023-04-02T11:53:02.788Z,100.00
2023-04-02T11:55:33.686Z,100.00
2023-04-02T11:58:58.376Z,100.00
2023-04-02T12:05:14.684Z,100.00
2023-04-02T12:08:05.709Z,100.00
2023-04-02T12:10:35.586Z,100.00
2023-04-02T12:13:03.817Z,100.00
2023-04-02T12:15:50.476Z,100.00
2023-04-02T12:18:23.922Z,100.00
2023-04-02T12:20:55.156Z,100.00
2023-04-02T12:23:29.223Z,100.00
2023-04-02T12:25:59.754Z,100.00
2023-04-02T12:28:30.046Z,99.46
2023-04-02T12:31:13.600Z,100.00
2023-04-02T12:33:43.838Z,100.00
2023-04-02T12:36:21.475Z,99.57
2023-04-02T12:38:52.395Z,99.94
2023-04-02T12:41:25.028Z,100.00
2023-04-02T12:44:00.393Z,98.21
2023-04-02T12:46:29.717Z,99.58
2023-04-02T12:49:06.692Z,99.48
2023-04-02T12:51:37.084Z,98.70
2023-04-02T12:54:06.168Z,99.63
2023-04-02T12:56:34.403Z,99.82
2023-04-02T12:59:02.880Z,100.00
2023-04-02T13:01:33.948Z,100.00
2023-04-02T13:04:07.323Z,98.99
2023-04-02T13:06:37.496Z,99.95
2023-04-02T13:09:08.082Z,97.90
2023-04-02T13:11:38.440Z,97.59
2023-04-02T13:14:09.510Z,95.75
2023-04-02T13:16:40.746Z,94.63
2023-04-02T13:19:26.119Z,95.51
2023-04-02T13:21:55.174Z,95.31
2023-04-02T13:24:25.746Z,93.97
2023-04-02T13:26:57.559Z,94.86
2023-04-02T13:29:28.804Z,94.09
2023-04-02T13:32:01.180Z,94.72
2023-04-02T13:34:31.346Z,93.74
2023-04-02T13:37:00.055Z,94.22
2023-04-02T13:39:30.248Z,94.28
2023-04-02T13:42:00.437Z,94.44
2023-04-02T13:44:30.737Z,93.75
2023-04-02T13:47:02.724Z,94.53
2023-04-02T13:49:33.200Z,93.21
2023-04-02T13:52:05.101Z,93.01
2023-04-02T13:54:41.643Z,93.68
2023-04-02T13:57:10.038Z,92.09
2023-04-02T13:59:38.450Z,91.85
2023-04-02T14:02:11.516Z,90.99
2023-04-02T14:04:47.054Z,92.31
2023-04-02T14:07:36.636Z,90.95
2023-04-02T14:10:19.250Z,91.73
2023-04-02T14:13:13.226Z,92.89
2023-04-02T14:15:59.216Z,93.11
2023-04-02T14:18:51.675Z,92.53
2023-04-02T14:21:31.184Z,92.90
2023-04-02T14:24:17.235Z,93.14
2023-04-02T14:26:59.564Z,91.18
2023-04-02T14:29:35.236Z,93.27
2023-04-02T14:32:08.994Z,92.75
2023-04-02T14:34:45.313Z,93.15
2023-04-02T14:37:21.944Z,93.45
2023-04-02T14:40:03.775Z,93.24
2023-04-02T14:42:36.121Z,93.03
2023-04-02T14:45:10.895Z,93.48
2023-04-02T14:47:44.553Z,91.69
2023-04-02T14:50:16.637Z,92.06
2023-04-02T14:52:52.607Z,91.27
2023-04-02T14:55:32.771Z,90.30
2023-04-02T14:58:05.348Z,90.25
2023-04-02T15:00:39.982Z,91.20
2023-04-02T15:03:17.518Z,91.29
2023-04-02T15:05:49.202Z,90.56
2023-04-02T15:08:23.514Z,91.15
2023-04-02T15:11:06.617Z,91.60
2023-04-02T15:13:41.017Z,90.66
2023-04-02T15:16:16.267Z,90.28
2023-04-02T15:18:44.590Z,91.40
2023-04-02T15:21:43.437Z,91.65
2023-04-02T15:24:31.511Z,91.27
2023-04-02T15:27:24.477Z,90.95
2023-04-02T15:30:00.898Z,90.54
2023-04-02T15:32:38.244Z,91.94
2023-04-02T15:35:21.865Z,92.53
2023-04-02T15:37:59.707Z,91.71
2023-04-02T15:40:50.577Z,91.96
2023-04-02T15:43:25.584Z,92.04
2023-04-02T15:46:15.892Z,91.75
2023-04-02T15:49:04.794Z,90.99
2023-04-02T15:51:49.997Z,90.52
2023-04-02T15:54:37.101Z,90.84
2023-04-02T15:57:21.043Z,89.77
2023-04-02T16:00:15.450Z,89.74
2023-04-02T16:03:17.335Z,89.85
2023-04-02T16:05:58.701Z,89.82
2023-04-02T16:08:43.065Z,89.00
2023-04-02T16:11:13.121Z,88.44
2023-04-02T16:13:43.990Z,89.68
2023-04-02T16:16:17.276Z,88.54
2023-04-02T16:18:54.680Z,89.05
2023-04-02T16:21:25.214Z,89.06
2023-04-02T16:23:53.781Z,89.80
2023-04-02T16:26:45.336Z,88.86
2023-04-02T16:29:58.176Z,89.50
2023-04-02T16:32:46.353Z,88.45
2023-04-02T16:38:07.780Z,88.89
2023-04-02T16:40:43.762Z,88.55
2023-04-02T16:43:24.261Z,89.37
2023-04-02T16:46:02.002Z,89.72
2023-04-02T16:48:41.286Z,89.56
2023-04-02T16:51:21.166Z,88.80
2023-04-02T16:54:02.032Z,89.19
2023-04-02T16:56:45.958Z,88.85
2023-04-02T16:59:26.480Z,90.34
2023-04-02T17:02:04.027Z,87.92
2023-04-02T17:04:58.795Z,87.91
2023-04-02T17:07:36.465Z,88.51
2023-04-02T17:10:23.626Z,88.24
2023-04-02T17:13:03.209Z,87.95
2023-04-02T17:15:39.033Z,87.83
2023-04-02T17:18:19.829Z,87.98
2023-04-02T17:20:49.998Z,86.78
2023-04-02T17:23:20.470Z,86.93
2023-04-02T17:25:55.137Z,88.01
2023-04-02T17:28:29.606Z,86.58
2023-04-02T17:31:01.306Z,87.41
2023-04-02T17:33:31.118Z,87.51
2023-04-02T17:36:26.080Z,85.31
2023-04-02T17:39:06.025Z,87.07
2023-04-02T17:41:41.510Z,84.98
2023-04-02T17:44:29.707Z,86.08
2023-04-02T17:47:09.606Z,84.98
2023-04-02T17:49:51.094Z,85.32
2023-04-02T17:52:25.034Z,85.09
2023-04-02T17:55:03.578Z,84.91
2023-04-02T17:57:55.020Z,85.24
2023-04-02T18:00:39.787Z,84.35
2023-04-02T18:03:30.040Z,83.70
2023-04-02T18:06:06.440Z,83.62
2023-04-02T18:08:42.911Z,84.30
2023-04-02T18:11:15.532Z,84.02
2023-04-02T18:13:49.886Z,83.99
2023-04-02T18:16:44.256Z,84.12
2023-04-02T18:19:19.136Z,83.65
2023-04-02T18:21:55.734Z,84.26
2023-04-02T18:25:15.136Z,83.17
2023-04-02T18:28:10.646Z,82.97
2023-04-02T18:30:46.344Z,81.84
2023-04-02T18:33:33.750Z,81.59
2023-04-02T18:36:08.001Z,81.77
2023-04-02T18:38:45.683Z,80.82
2023-04-02T18:41:38.378Z,82.04
2023-04-02T18:44:26.621Z,82.20
2023-04-02T18:46:59.814Z,80.69
2023-04-02T18:49:33.975Z,82.82
2023-04-02T18:52:06.883Z,80.96
2023-04-02T18:54:41.434Z,81.96
2023-04-02T18:57:14.955Z,82.29
2023-04-02T18:59:49.940Z,83.27
2023-04-02T19:02:39.043Z,82.48
2023-04-02T19:05:16.312Z,83.54
2023-04-02T19:07:46.779Z,83.65
2023-04-02T19:10:29.591Z,82.45
2023-04-02T19:12:57.953Z,83.68
2023-04-02T19:15:36.607Z,84.47
2023-04-02T19:18:16.594Z,83.76
2023-04-02T19:20:52.934Z,85.47
2023-04-02T19:23:40.800Z,84.08
2023-04-02T19:26:14.764Z,84.58
2023-04-02T19:28:54.200Z,86.31
2023-04-02T19:31:44.931Z,84.97
2023-04-02T19:34:21.932Z,84.95
2023-04-02T19:36:55.743Z,84.54
2023-04-02T19:40:04.760Z,85.19
2023-04-02T19:42:49.517Z,84.95
2023-04-02T19:45:35.908Z,85.95
2023-04-02T19:48:14.404Z,85.30
2023-04-02T19:50:43.191Z,84.60
2023-04-02T19:53:11.657Z,84.48
2023-04-02T19:55:40.382Z,84.83
2023-04-02T19:58:20.154Z,84.31
2023-04-02T20:00:48.823Z,84.85
2023-04-02T20:03:41.623Z,84.18
2023-04-02T20:06:24.801Z,83.56
2023-04-02T20:08:53.236Z,83.40
2023-04-02T20:11:21.432Z,83.89
2023-04-02T20:13:51.390Z,83.88
2023-04-02T20:16:19.646Z,84.05
2023-04-02T20:18:48.217Z,83.75
2023-04-02T20:21:16.484Z,83.14
2023-04-02T20:23:44.788Z,82.56
2023-04-02T20:26:13.532Z,83.14
2023-04-02T20:28:41.766Z,83.05
2023-04-02T20:31:13.882Z,83.70
2023-04-02T20:33:42.350Z,83.50
2023-04-02T20:36:13.671Z,83.65
2023-04-02T20:38:42.073Z,82.95
2023-04-02T20:41:11.601Z,83.86
2023-04-02T20:43:40.711Z,84.22
2023-04-02T20:46:12.546Z,83.13
2023-04-02T20:48:41.789Z,84.02
2023-04-02T20:51:13.175Z,84.07
2023-04-02T20:53:41.626Z,83.65
2023-04-02T20:56:12.131Z,83.97
2023-04-02T20:58:41.772Z,82.91
2023-04-02T21:01:16.471Z,82.25
2023-04-02T21:03:44.988Z,81.70
2023-04-02T21:06:14.953Z,82.31
2023-04-02T21:08:44.472Z,82.67
2023-04-02T21:11:13.400Z,82.38
2023-04-02T21:13:43.824Z,82.56
2023-04-02T21:16:17.642Z,81.06
2023-04-02T21:18:47.011Z,82.24
2023-04-02T21:21:16.598Z,82.84
2023-04-02T21:23:46.366Z,81.51
2023-04-02T21:26:17.003Z,81.91
2023-04-02T21:28:46.412Z,81.11
2023-04-02T21:31:18.525Z,80.88
2023-04-02T21:33:49.365Z,81.37
2023-04-02T21:36:20.161Z,80.83
2023-04-02T21:38:52.250Z,80.18
2023-04-02T21:41:22.780Z,79.49
2023-04-02T21:43:51.488Z,79.54
2023-04-02T21:46:23.872Z,80.23
2023-04-02T21:48:58.459Z,79.77
2023-04-02T21:51:31.058Z,80.67
2023-04-02T21:54:00.319Z,80.26
2023-04-02T21:56:31.194Z,80.80
2023-04-02T21:59:01.924Z,81.32
2023-04-02T22:01:34.190Z,79.71
2023-04-02T22:06:57.986Z,80.33
2023-04-02T22:09:27.799Z,80.33
2023-04-02T22:11:59.690Z,79.74
2023-04-02T22:14:29.216Z,80.28
2023-04-02T22:16:59.413Z,80.45
2023-04-02T22:19:28.425Z,80.54
2023-04-02T22:21:56.909Z,80.88
2023-04-02T22:24:25.492Z,80.62
2023-04-02T22:26:54.926Z,79.45
2023-04-02T22:29:23.810Z,80.30
2023-04-02T22:31:52.800Z,79.17
2023-04-02T22:34:22.479Z,79.92
2023-04-02T22:36:50.814Z,79.26
2023-04-02T22:39:19.151Z,80.13
2023-04-02T22:41:47.341Z,80.13
2023-04-02T22:44:16.850Z,79.71
2023-04-02T22:46:45.260Z,79.89
2023-04-02T22:49:18.972Z,78.89
2023-04-02T22:51:48.894Z,79.46
2023-04-02T22:54:17.361Z,79.87
2023-04-02T22:56:45.682Z,79.75
2023-04-02T22:59:14.202Z,79.93
2023-04-02T23:01:42.521Z,79.39
2023-04-02T23:04:10.799Z,79.36
2023-04-02T23:06:39.025Z,78.70
2023-04-02T23:09:08.711Z,78.67
2023-04-02T23:11:36.990Z,78.79
2023-04-02T23:14:05.682Z,77.55
2023-04-02T23:16:33.978Z,77.23
2023-04-02T23:19:02.978Z,77.98
2023-04-02T23:21:31.220Z,78.53
2023-04-02T23:23:59.482Z,77.78
2023-04-02T23:26:31.445Z,77.37
2023-04-02T23:29:08.242Z,77.17
2023-04-02T23:31:37.113Z,77.41
2023-04-02T23:34:05.562Z,77.30
2023-04-02T23:36:35.809Z,76.95
2023-04-02T23:39:09.434Z,77.43
2023-04-02T23:41:42.273Z,77.15
2023-04-02T23:44:11.986Z,77.16
2023-04-02T23:46:40.272Z,76.67
2023-04-02T23:49:10.081Z,75.47
2023-04-02T23:51:38.501Z,74.85
2023-04-02T23:54:06.740Z,75.71
2023-04-02T23:56:34.975Z,75.13
2023-04-02T23:59:09.069Z,76.06
